createdAt,value
2022-08-03T00:00:35.976Z,87.24
2022-08-03T00:01:35.984Z,87.68
2022-08-03T00:02:35.975Z,87.28
2022-08-03T00:03:35.937Z,87.08
2022-08-03T00:04:35.941Z,87.48
2022-08-03T00:05:35.902Z,87.48
2022-08-03T00:06:37.327Z,87.48
2022-08-03T00:07:35.868Z,87.28
2022-08-03T00:08:37.653Z,87.18
2022-08-03T00:09:36.036Z,87.18
2022-08-03T00:10:35.831Z,87.38
2022-08-03T00:11:35.841Z,87.78
2022-08-03T00:12:35.800Z,87.68
2022-08-03T00:13:35.781Z,87.88
2022-08-03T00:14:35.787Z,88.12
2022-08-03T00:15:35.799Z,88.32
2022-08-03T00:16:35.806Z,88.53
2022-08-03T00:17:52.740Z,88.93
2022-08-03T00:18:36.715Z,89.33
2022-08-03T00:19:35.703Z,89.78
2022-08-03T00:20:35.716Z,90.37
2022-08-03T00:21:35.680Z,90.68
2022-08-03T00:22:35.652Z,90.88
2022-08-03T00:23:51.616Z,91.08
2022-08-03T00:24:36.639Z,91.42
2022-08-03T00:25:35.617Z,91.52
2022-08-03T00:26:35.615Z,91.63
2022-08-03T00:27:35.596Z,91.93
2022-08-03T00:28:35.575Z,92.23
2022-08-03T00:29:59.412Z,92.33
2022-08-03T00:30:36.550Z,92.83
2022-08-03T00:31:52.810Z,93.08
2022-08-03T00:32:36.538Z,93.38
2022-08-03T00:33:59.187Z,92.97
2022-08-03T00:34:57.769Z,92.88
2022-08-03T00:35:50.401Z,92.97
2022-08-03T00:36:36.464Z,93.28
2022-08-03T00:37:41.332Z,93.42
2022-08-03T00:38:36.421Z,93.82
2022-08-03T00:39:35.422Z,93.82
2022-08-03T00:40:35.401Z,93.73
2022-08-03T00:41:35.390Z,93.93
2022-08-03T00:42:56.389Z,94.02
2022-08-03T00:43:35.369Z,94.13
2022-08-03T00:44:35.350Z,94.57
2022-08-03T00:45:35.381Z,94.67
2022-08-03T00:46:35.301Z,94.78
2022-08-03T00:47:35.303Z,95.07
2022-08-03T00:48:35.329Z,94.87
2022-08-03T00:49:35.331Z,95.07
2022-08-03T00:50:35.262Z,95.32
2022-08-03T00:51:35.308Z,95.32
2022-08-03T00:52:35.243Z,95.62
2022-08-03T00:53:35.242Z,95.22
2022-08-03T00:54:35.221Z,95.02
2022-08-03T00:55:35.770Z,95.02
2022-08-03T00:56:35.212Z,94.72
2022-08-03T00:57:35.165Z,94.82
2022-08-03T00:58:35.190Z,94.72
2022-08-03T00:59:35.176Z,94.32
2022-08-03T01:00:35.124Z,94.21
2022-08-03T01:01:35.170Z,94.21
2022-08-03T01:02:35.098Z,94.52
2022-08-03T01:03:35.099Z,94.92
2022-08-03T01:04:35.099Z,94.87
2022-08-03T01:05:35.047Z,94.96
2022-08-03T01:06:35.027Z,95.17
2022-08-03T01:07:35.018Z,95.37
2022-08-03T01:08:35.017Z,95.37
2022-08-03T01:09:34.988Z,95.51
2022-08-03T01:10:34.988Z,95.61
2022-08-03T01:11:35.036Z,95.72
2022-08-03T01:12:34.948Z,96.01
2022-08-03T01:14:01.620Z,96.36
2022-08-03T01:14:35.920Z,96.56
2022-08-03T01:15:34.900Z,97.17
2022-08-03T01:16:35.861Z,97.47
2022-08-03T01:17:34.938Z,97.82
2022-08-03T01:18:34.861Z,98.13
2022-08-03T01:19:34.871Z,98.02
2022-08-03T01:20:34.853Z,98.13
2022-08-03T01:21:34.826Z,98.33
2022-08-03T01:22:34.820Z,98.13
2022-08-03T01:23:34.855Z,98.43
2022-08-03T01:24:34.784Z,98.43
2022-08-03T01:25:34.793Z,98.68
2022-08-03T01:26:34.744Z,98.88
2022-08-03T01:27:34.805Z,98.88
2022-08-03T01:28:34.764Z,98.88
2022-08-03T01:29:34.714Z,98.47
2022-08-03T01:30:34.697Z,98.37
2022-08-03T01:31:35.291Z,98.68
2022-08-03T01:32:58.360Z,98.58
2022-08-03T01:33:35.696Z,98.88
2022-08-03T01:34:34.669Z,99.08
2022-08-03T01:35:38.268Z,99.08
2022-08-03T01:36:34.607Z,99.13
2022-08-03T01:37:34.629Z,99.02
2022-08-03T01:38:34.587Z,99.22
2022-08-03T01:39:34.597Z,99.33
2022-08-03T01:40:34.554Z,99.33
2022-08-03T01:41:34.577Z,99.22
2022-08-03T01:42:34.538Z,99.13
2022-08-03T01:44:28.231Z,99.02
2022-08-03T01:44:35.519Z,99.22
2022-08-03T01:45:34.561Z,99.02
2022-08-03T01:46:34.478Z,98.97
2022-08-03T01:47:34.860Z,98.77
2022-08-03T01:48:34.447Z,99.18
2022-08-03T01:49:34.496Z,99.48
2022-08-03T01:50:34.447Z,99.88
2022-08-03T01:52:02.714Z,99.99
2022-08-03T01:52:35.401Z,99.99
2022-08-03T01:53:34.381Z,99.99
2022-08-03T01:54:34.371Z,99.99
2022-08-03T01:55:34.353Z,99.99
2022-08-03T01:56:34.329Z,99.99
2022-08-03T01:57:34.333Z,99.99
2022-08-03T01:58:35.322Z,99.99
2022-08-03T01:59:34.345Z,99.99
2022-08-03T02:00:34.253Z,99.99
2022-08-03T02:02:29.016Z,99.98
2022-08-03T02:02:35.525Z,99.78
2022-08-03T02:03:34.346Z,99.58
2022-08-03T02:04:34.284Z,99.68
2022-08-03T02:05:34.212Z,99.99
2022-08-03T02:07:01.415Z,99.99
2022-08-03T02:07:35.183Z,99.99
2022-08-03T02:08:34.186Z,99.99
2022-08-03T02:09:34.184Z,99.99
2022-08-03T02:10:35.267Z,99.99
2022-08-03T02:11:34.124Z,99.99
2022-08-03T02:12:34.118Z,99.99
2022-08-03T02:13:34.146Z,99.99
2022-08-03T02:14:34.067Z,99.99
2022-08-03T02:15:34.117Z,99.99
2022-08-03T02:16:34.067Z,99.99
2022-08-03T02:17:39.938Z,99.99
2022-08-03T02:18:35.010Z,99.99
2022-08-03T02:19:35.816Z,99.99
2022-08-03T02:20:33.987Z,99.99
2022-08-03T02:21:56.530Z,99.99
2022-08-03T02:22:34.963Z,99.99
2022-08-03T02:23:33.949Z,99.99
2022-08-03T02:24:33.949Z,99.99
2022-08-03T02:25:33.944Z,99.99
2022-08-03T02:26:33.890Z,99.99
2022-08-03T02:27:33.891Z,99.99
2022-08-03T02:28:33.909Z,99.99
2022-08-03T02:29:39.177Z,99.99
2022-08-03T02:30:34.851Z,99.99
2022-08-03T02:31:33.830Z,99.99
2022-08-03T02:32:33.812Z,99.99
2022-08-03T02:33:33.801Z,99.99
2022-08-03T02:34:33.801Z,99.99
2022-08-03T02:35:33.752Z,99.99
2022-08-03T02:36:33.771Z,99.99
2022-08-03T02:37:33.755Z,99.99
2022-08-03T02:38:33.724Z,99.99
2022-08-03T02:39:33.704Z,99.99
2022-08-03T02:40:33.701Z,99.99
2022-08-03T02:41:33.701Z,99.99
2022-08-03T02:42:33.718Z,99.99
2022-08-03T02:43:57.659Z,99.99
2022-08-03T02:44:34.634Z,99.99
2022-08-03T02:45:33.646Z,99.99
2022-08-03T02:46:33.596Z,99.99
2022-08-03T02:47:53.827Z,99.99
2022-08-03T02:48:34.585Z,99.99
2022-08-03T02:49:40.898Z,99.99
2022-08-03T02:50:34.548Z,99.99
2022-08-03T02:51:33.549Z,99.99
2022-08-03T02:52:33.535Z,99.99
2022-08-03T02:53:33.537Z,99.99
2022-08-03T02:54:33.486Z,99.99
2022-08-03T02:55:33.480Z,99.99
2022-08-03T02:56:33.479Z,99.99
2022-08-03T02:57:33.476Z,99.99
2022-08-03T02:58:33.488Z,99.99
2022-08-03T02:59:33.467Z,99.99
2022-08-03T03:00:33.484Z,99.99
2022-08-03T03:01:33.432Z,99.99
2022-08-03T03:02:33.515Z,99.99
2022-08-03T03:03:40.025Z,99.99
2022-08-03T03:04:34.478Z,99.99
2022-08-03T03:05:54.626Z,99.99
2022-08-03T03:06:34.337Z,99.99
2022-08-03T03:07:33.931Z,99.99
2022-08-03T03:08:34.325Z,99.99
2022-08-03T03:09:40.379Z,99.99
2022-08-03T03:10:34.321Z,99.99
2022-08-03T03:11:33.293Z,99.99
2022-08-03T03:12:33.342Z,99.99
2022-08-03T03:13:33.251Z,99.99
2022-08-03T03:14:34.132Z,99.99
2022-08-03T03:15:33.183Z,99.99
2022-08-03T03:16:33.213Z,99.99
2022-08-03T03:17:33.181Z,99.99
2022-08-03T03:18:33.164Z,99.99
2022-08-03T03:19:33.148Z,99.99
2022-08-03T03:20:33.123Z,99.99
2022-08-03T03:21:33.148Z,99.99
2022-08-03T03:22:33.103Z,99.99
2022-08-03T03:23:33.090Z,99.99
2022-08-03T03:24:33.079Z,99.99
2022-08-03T03:25:33.057Z,99.99
2022-08-03T03:26:33.048Z,99.99
2022-08-03T03:27:33.056Z,99.99
2022-08-03T03:28:33.018Z,99.99
2022-08-03T03:29:39.469Z,99.99
2022-08-03T03:30:34.004Z,99.99
2022-08-03T03:31:32.949Z,99.99
2022-08-03T03:32:32.947Z,99.99
2022-08-03T03:33:32.947Z,99.99
2022-08-03T03:34:32.958Z,99.99
2022-08-03T03:35:37.165Z,99.99
2022-08-03T03:36:33.901Z,99.99
2022-08-03T03:37:32.879Z,99.99
2022-08-03T03:38:32.872Z,99.99
2022-08-03T03:39:32.891Z,99.99
2022-08-03T03:40:32.849Z,99.99
2022-08-03T03:41:33.930Z,99.99
2022-08-03T03:42:32.822Z,99.99
2022-08-03T03:43:32.801Z,99.99
2022-08-03T03:44:32.821Z,99.99
2022-08-03T03:45:32.752Z,99.99
2022-08-03T03:46:32.784Z,99.99
2022-08-03T03:47:33.120Z,99.99
2022-08-03T03:48:32.733Z,99.99
2022-08-03T03:49:32.769Z,99.99
2022-08-03T03:50:32.712Z,99.99
2022-08-03T03:51:32.672Z,99.99
2022-08-03T03:52:32.680Z,99.99
2022-08-03T03:53:32.691Z,99.99
2022-08-03T03:54:32.652Z,99.99
2022-08-03T03:55:32.663Z,99.99
2022-08-03T03:56:32.607Z,99.99
2022-08-03T03:57:32.597Z,99.99
2022-08-03T03:58:32.615Z,99.99
2022-08-03T03:59:32.574Z,99.99
2022-08-03T04:00:32.606Z,99.99
2022-08-03T04:01:32.535Z,99.99
2022-08-03T04:02:32.537Z,99.99
2022-08-03T04:03:32.505Z,99.99
2022-08-03T04:04:32.495Z,99.99
2022-08-03T04:05:32.488Z,99.99
2022-08-03T04:06:32.483Z,99.99
2022-08-03T04:07:32.465Z,99.99
2022-08-03T04:08:32.438Z,99.99
2022-08-03T04:09:32.422Z,99.99
2022-08-03T04:10:32.428Z,99.99
2022-08-03T04:11:32.385Z,99.99
2022-08-03T04:12:32.409Z,99.99
2022-08-03T04:13:32.398Z,99.99
2022-08-03T04:14:32.360Z,99.99
2022-08-03T04:15:32.330Z,99.99
2022-08-03T04:16:32.338Z,99.99
2022-08-03T04:17:32.319Z,99.99
2022-08-03T04:18:32.340Z,99.99
2022-08-03T04:19:32.281Z,99.99
2022-08-03T04:20:32.263Z,99.99
2022-08-03T04:21:32.250Z,99.99
2022-08-03T04:22:32.272Z,99.88
2022-08-03T04:23:32.212Z,99.79
2022-08-03T04:24:32.211Z,99.28
2022-08-03T04:25:32.192Z,99.08
2022-08-03T04:26:32.183Z,99.08
2022-08-03T04:27:32.182Z,98.88
2022-08-03T04:28:32.212Z,98.78
2022-08-03T04:29:32.134Z,98.88
2022-08-03T04:30:32.133Z,98.78
2022-08-03T04:31:32.115Z,98.78
2022-08-03T04:32:32.124Z,98.78
2022-08-03T04:33:32.359Z,98.78
2022-08-03T04:34:32.096Z,98.88
2022-08-03T04:36:02.184Z,98.73
2022-08-03T04:36:33.045Z,98.73
2022-08-03T04:37:32.034Z,98.63
2022-08-03T04:38:32.018Z,98.53
2022-08-03T04:39:31.997Z,98.73
2022-08-03T04:40:31.987Z,98.63
2022-08-03T04:41:31.987Z,98.53
2022-08-03T04:42:31.988Z,98.53
2022-08-03T04:43:31.959Z,98.43
2022-08-03T04:44:31.938Z,98.53
2022-08-03T04:45:31.899Z,98.63
2022-08-03T04:46:31.928Z,98.73
2022-08-03T04:47:31.888Z,98.83
2022-08-03T04:48:31.879Z,98.73
2022-08-03T04:49:31.957Z,98.63
2022-08-03T04:50:31.856Z,98.73
2022-08-03T04:51:31.841Z,98.63
2022-08-03T04:52:31.812Z,98.83
2022-08-03T04:53:31.820Z,99.13
2022-08-03T04:54:31.780Z,99.04
2022-08-03T04:55:31.827Z,99.13
2022-08-03T04:56:31.752Z,99.13
2022-08-03T04:57:31.731Z,99.13
2022-08-03T04:58:31.723Z,99.33
2022-08-03T04:59:31.726Z,99.44
2022-08-03T05:00:31.698Z,99.44
2022-08-03T05:01:31.819Z,99.64
2022-08-03T05:02:31.677Z,99.84
2022-08-03T05:03:31.663Z,99.84
2022-08-03T05:04:31.683Z,99.84
2022-08-03T05:05:50.225Z,99.74
2022-08-03T05:06:32.673Z,99.84
2022-08-03T05:07:36.404Z,99.84
2022-08-03T05:08:32.596Z,99.84
2022-08-03T05:09:49.789Z,99.74
2022-08-03T05:10:32.592Z,99.84
2022-08-03T05:11:31.569Z,99.84
2022-08-03T05:12:33.158Z,99.94
2022-08-03T05:13:31.549Z,99.94
2022-08-03T05:14:31.546Z,99.84
2022-08-03T05:15:31.500Z,99.84
2022-08-03T05:16:31.501Z,99.94
2022-08-03T05:17:31.457Z,99.84
2022-08-03T05:18:31.448Z,99.74
2022-08-03T05:19:31.488Z,99.59
2022-08-03T05:20:31.430Z,99.39
2022-08-03T05:21:52.113Z,99.39
2022-08-03T05:22:32.431Z,98.99
2022-08-03T05:23:31.361Z,98.44
2022-08-03T05:24:31.361Z,98.44
2022-08-03T05:25:31.360Z,97.93
2022-08-03T05:26:31.391Z,97.78
2022-08-03T05:27:31.313Z,97.49
2022-08-03T05:28:31.329Z,97.08
2022-08-03T05:29:31.292Z,96.98
2022-08-03T05:30:34.049Z,96.88
2022-08-03T05:31:31.251Z,96.93
2022-08-03T05:32:31.252Z,95.32
2022-08-03T05:33:31.242Z,96.03
2022-08-03T05:34:31.255Z,96.13
2022-08-03T05:35:57.579Z,95.62
2022-08-03T05:36:32.195Z,95.73
2022-08-03T05:37:31.198Z,95.62
2022-08-03T05:38:34.000Z,95.38
2022-08-03T05:39:31.161Z,95.48
2022-08-03T05:40:31.156Z,95.38
2022-08-03T05:41:36.866Z,95.28
2022-08-03T05:42:32.107Z,94.47
2022-08-03T05:43:31.100Z,94.07
2022-08-03T05:44:31.071Z,93.42
2022-08-03T05:45:31.073Z,94.02
2022-08-03T05:46:31.062Z,93.58
2022-08-03T05:47:31.029Z,92.37
2022-08-03T05:48:31.020Z,92.47
2022-08-03T05:49:31.034Z,91.67
2022-08-03T05:50:31.000Z,91.83
2022-08-03T05:51:30.998Z,92.03
2022-08-03T05:52:30.975Z,90.78
2022-08-03T05:53:30.954Z,90.09
2022-08-03T05:54:56.077Z,88.54
2022-08-03T05:55:31.940Z,87.80
2022-08-03T05:56:30.932Z,87.16
2022-08-03T05:57:30.886Z,85.71
2022-08-03T05:58:30.890Z,85.07
2022-08-03T05:59:38.773Z,83.73
2022-08-03T06:00:31.876Z,82.79
2022-08-03T06:01:30.917Z,81.65
2022-08-03T06:02:30.832Z,81.51
2022-08-03T06:03:30.805Z,82.17
2022-08-03T06:04:30.803Z,78.24
2022-08-03T06:05:30.833Z,78.64
2022-08-03T06:06:32.379Z,78.41
2022-08-03T06:07:30.776Z,78.27
2022-08-03T06:08:30.739Z,76.67
2022-08-03T06:09:56.592Z,77.13
2022-08-03T06:10:37.133Z,76.79
2022-08-03T06:11:31.713Z,75.67
2022-08-03T06:12:30.711Z,74.57
2022-08-03T06:13:30.677Z,74.33
2022-08-03T06:14:30.659Z,73.30
2022-08-03T06:15:30.666Z,72.47
2022-08-03T06:16:30.667Z,72.38
2022-08-03T06:17:37.661Z,71.58
2022-08-03T06:18:31.596Z,71.25
2022-08-03T06:19:30.579Z,71.41
2022-08-03T06:20:30.631Z,71.31
2022-08-03T06:21:30.567Z,69.99
2022-08-03T06:22:30.551Z,68.60
2022-08-03T06:23:54.368Z,70.15
2022-08-03T06:24:31.534Z,70.02
2022-08-03T06:25:30.567Z,68.33
2022-08-03T06:26:30.492Z,66.42
2022-08-03T06:27:37.144Z,68.10
2022-08-03T06:28:52.441Z,67.57
2022-08-03T06:29:31.461Z,66.68
2022-08-03T06:30:30.424Z,67.38
2022-08-03T06:31:33.359Z,66.46
2022-08-03T06:32:30.432Z,65.63
2022-08-03T06:33:48.221Z,66.42
2022-08-03T06:34:35.667Z,65.00
2022-08-03T06:35:30.366Z,64.48
2022-08-03T06:36:30.345Z,64.58
2022-08-03T06:37:30.336Z,64.38
2022-08-03T06:38:30.357Z,63.98
2022-08-03T06:39:30.351Z,63.95
2022-08-03T06:40:30.289Z,63.46
2022-08-03T06:41:30.296Z,62.84
2022-08-03T06:42:31.319Z,61.65
2022-08-03T06:43:30.247Z,62.81
2022-08-03T06:44:31.250Z,62.38
2022-08-03T06:45:31.815Z,61.10
2022-08-03T06:46:30.212Z,61.39
2022-08-03T06:47:30.218Z,60.87
2022-08-03T06:48:30.222Z,60.77
2022-08-03T06:49:30.204Z,59.56
2022-08-03T06:50:30.162Z,59.95
2022-08-03T06:52:04.187Z,60.02
2022-08-03T06:52:37.611Z,59.14
2022-08-03T06:53:31.133Z,59.53
2022-08-03T06:54:32.917Z,59.01
2022-08-03T06:55:30.244Z,58.81
2022-08-03T06:56:30.074Z,58.61
2022-08-03T06:57:30.061Z,59.30
2022-08-03T06:58:30.056Z,59.30
2022-08-03T07:00:07.446Z,58.81
2022-08-03T07:00:31.073Z,58.88
2022-08-03T07:01:30.081Z,57.50
2022-08-03T07:02:29.991Z,58.26
2022-08-03T07:03:29.998Z,58.36
2022-08-03T07:04:30.039Z,57.28
2022-08-03T07:05:29.999Z,57.97
2022-08-03T07:06:29.940Z,57.05
2022-08-03T07:07:29.934Z,55.38
2022-08-03T07:08:33.853Z,56.34
2022-08-03T07:09:29.908Z,55.91
2022-08-03T07:10:29.894Z,55.72
2022-08-03T07:11:29.895Z,55.91
2022-08-03T07:12:29.868Z,55.62
2022-08-03T07:13:29.823Z,56.68
2022-08-03T07:14:29.934Z,56.18
2022-08-03T07:15:53.847Z,54.35
2022-08-03T07:16:30.845Z,55.72
2022-08-03T07:17:29.815Z,54.93
2022-08-03T07:18:30.226Z,55.33
2022-08-03T07:19:29.764Z,54.66
2022-08-03T07:20:32.525Z,54.64
2022-08-03T07:21:29.736Z,55.43
2022-08-03T07:22:29.753Z,54.81
2022-08-03T07:23:29.719Z,53.92
2022-08-03T07:24:29.756Z,54.00
2022-08-03T07:25:29.690Z,53.70
2022-08-03T07:26:29.665Z,53.28
2022-08-03T07:27:29.682Z,53.77
2022-08-03T07:28:29.701Z,52.67
2022-08-03T07:29:29.656Z,52.76
2022-08-03T07:30:30.636Z,53.03
2022-08-03T07:31:34.447Z,51.96
2022-08-03T07:32:30.593Z,51.93
2022-08-03T07:33:29.580Z,52.40
2022-08-03T07:34:29.653Z,51.71
2022-08-03T07:35:29.600Z,52.08
2022-08-03T07:36:29.538Z,51.10
2022-08-03T07:37:29.534Z,50.71
2022-08-03T07:38:29.522Z,50.49
2022-08-03T07:39:29.495Z,49.90
2022-08-03T07:40:31.768Z,49.92
2022-08-03T07:41:29.474Z,51.03
2022-08-03T07:42:29.529Z,51.90
2022-08-03T07:43:29.454Z,51.12
2022-08-03T07:44:29.436Z,50.85
2022-08-03T07:45:29.468Z,50.07
2022-08-03T07:46:29.427Z,50.85
2022-08-03T07:47:35.379Z,52.33
2022-08-03T07:48:30.625Z,51.73
2022-08-03T07:49:29.415Z,51.42
2022-08-03T07:50:29.380Z,50.56
2022-08-03T07:51:29.367Z,50.29
2022-08-03T07:52:29.342Z,51.49
2022-08-03T07:53:29.391Z,52.96
2022-08-03T07:54:29.392Z,51.69
2022-08-03T07:55:29.297Z,52.96
2022-08-03T07:56:29.325Z,51.98
2022-08-03T07:57:29.282Z,53.06
2022-08-03T07:58:29.275Z,52.25
2022-08-03T07:59:29.278Z,51.71
2022-08-03T08:00:30.331Z,51.20
2022-08-03T08:01:29.396Z,49.97
2022-08-03T08:02:29.195Z,48.58
2022-08-03T08:03:29.257Z,48.48
2022-08-03T08:04:30.185Z,48.46
2022-08-03T08:05:29.215Z,47.28
2022-08-03T08:06:29.153Z,48.26
2022-08-03T08:07:29.171Z,48.16
2022-08-03T08:08:29.116Z,47.85
2022-08-03T08:09:29.157Z,48.41
2022-08-03T08:10:29.106Z,47.53
2022-08-03T08:11:29.100Z,46.75
2022-08-03T08:12:29.068Z,47.36
2022-08-03T08:13:29.049Z,47.48
2022-08-03T08:14:29.040Z,47.50
2022-08-03T08:15:29.197Z,48.50
2022-08-03T08:16:29.022Z,47.65
2022-08-03T08:17:29.129Z,48.65
2022-08-03T08:18:29.053Z,48.48
2022-08-03T08:19:29.174Z,49.46
2022-08-03T08:20:31.364Z,52.13
2022-08-03T08:21:53.883Z,49.77
2022-08-03T08:22:31.387Z,49.68
2022-08-03T08:23:42.363Z,49.58
2022-08-03T08:24:29.924Z,50.39
2022-08-03T08:25:28.886Z,50.09
2022-08-03T08:26:28.963Z,49.21
2022-08-03T08:27:28.875Z,49.70
2022-08-03T08:28:33.559Z,50.37
2022-08-03T08:29:28.856Z,49.77
2022-08-03T08:30:28.852Z,49.02
2022-08-03T08:31:28.818Z,53.03
2022-08-03T08:32:28.849Z,50.04
2022-08-03T08:33:42.181Z,49.26
2022-08-03T08:34:29.798Z,49.33
2022-08-03T08:35:39.569Z,49.11
2022-08-03T08:36:28.773Z,48.70
2022-08-03T08:37:28.809Z,47.21
2022-08-03T08:38:28.780Z,46.92
2022-08-03T08:39:28.747Z,48.58
2022-08-03T08:40:28.700Z,47.04
2022-08-03T08:41:32.081Z,46.67
2022-08-03T08:42:28.722Z,47.43
2022-08-03T08:43:40.730Z,47.72
2022-08-03T08:44:28.673Z,48.11
2022-08-03T08:45:28.633Z,47.85
2022-08-03T08:46:28.636Z,48.75
2022-08-03T08:47:28.617Z,50.10
2022-08-03T08:48:28.604Z,48.02
2022-08-03T08:49:28.698Z,49.58
2022-08-03T08:50:28.750Z,47.53
2022-08-03T08:51:43.821Z,47.33
2022-08-03T08:52:32.173Z,47.41
2022-08-03T08:53:28.557Z,47.28
2022-08-03T08:54:28.527Z,46.50
2022-08-03T08:55:28.531Z,46.39
2022-08-03T08:56:28.508Z,47.51
2022-08-03T08:57:42.222Z,45.92
2022-08-03T08:58:29.487Z,44.38
2022-08-03T08:59:47.653Z,44.95
2022-08-03T09:00:29.451Z,45.22
2022-08-03T09:01:28.589Z,44.83
2022-08-03T09:02:28.462Z,44.13
2022-08-03T09:03:30.376Z,45.28
2022-08-03T09:04:28.395Z,43.81
2022-08-03T09:05:54.986Z,43.35
2022-08-03T09:06:29.411Z,44.62
2022-08-03T09:07:28.354Z,44.81
2022-08-03T09:08:28.382Z,44.24
2022-08-03T09:10:08.280Z,44.66
2022-08-03T09:10:29.333Z,44.64
2022-08-03T09:11:54.328Z,44.54
2022-08-03T09:12:41.397Z,43.85
2022-08-03T09:13:29.416Z,43.85
2022-08-03T09:14:37.246Z,44.37
2022-08-03T09:15:29.332Z,45.25
2022-08-03T09:16:28.226Z,44.85
2022-08-03T09:17:28.240Z,45.32
2022-08-03T09:18:29.005Z,44.71
2022-08-03T09:19:28.215Z,44.23
2022-08-03T09:20:28.196Z,45.47
2022-08-03T09:21:32.962Z,44.57
2022-08-03T09:22:29.168Z,43.48
2022-08-03T09:23:59.187Z,42.91
2022-08-03T09:24:41.290Z,44.03
2022-08-03T09:25:29.157Z,43.85
2022-08-03T09:26:28.120Z,44.66
2022-08-03T09:27:28.121Z,45.12
2022-08-03T09:29:00.060Z,44.52
2022-08-03T09:29:29.110Z,43.84
2022-08-03T09:30:33.300Z,43.76
2022-08-03T09:31:29.093Z,45.03
2022-08-03T09:32:28.085Z,45.00
2022-08-03T09:33:36.145Z,43.91
2022-08-03T09:34:29.049Z,43.33
2022-08-03T09:35:51.541Z,43.52
2022-08-03T09:36:29.056Z,44.01
2022-08-03T09:38:12.306Z,44.34
2022-08-03T09:38:28.996Z,44.24
2022-08-03T09:39:40.991Z,44.44
2022-08-03T09:40:28.957Z,44.64
2022-08-03T09:41:27.971Z,44.05
2022-08-03T09:42:28.015Z,44.05
2022-08-03T09:43:28.060Z,44.66
2022-08-03T09:44:27.937Z,44.83
2022-08-03T09:45:27.929Z,44.46
2022-08-03T09:46:27.888Z,44.95
2022-08-03T09:47:28.405Z,45.56
2022-08-03T09:48:27.880Z,44.78
2022-08-03T09:49:27.883Z,45.39
2022-08-03T09:50:27.830Z,45.46
2022-08-03T09:52:24.730Z,45.39
2022-08-03T09:52:39.295Z,46.66
2022-08-03T09:53:28.803Z,46.53
2022-08-03T09:54:27.810Z,45.83
2022-08-03T09:56:33.433Z,45.22
2022-08-03T09:56:34.812Z,44.34
2022-08-03T09:57:28.783Z,44.95
2022-08-03T09:58:27.765Z,45.32
2022-08-03T09:59:27.733Z,44.73
2022-08-03T10:00:27.733Z,44.95
2022-08-03T10:01:27.796Z,45.75
2022-08-03T10:02:27.702Z,44.76
2022-08-03T10:03:27.756Z,44.76
2022-08-03T10:04:27.684Z,45.54
2022-08-03T10:05:27.675Z,45.64
2022-08-03T10:06:28.876Z,45.32
2022-08-03T10:09:15.390Z,44.13
2022-08-03T10:10:30.013Z,44.42
2022-08-03T10:11:16.129Z,44.81
2022-08-03T10:12:14.068Z,44.32
2022-08-03T10:13:13.969Z,43.74
2022-08-03T10:14:13.944Z,43.84
2022-08-03T10:16:21.197Z,44.30
2022-08-03T10:16:22.020Z,44.71
2022-08-03T10:17:14.994Z,43.74
2022-08-03T10:18:13.878Z,43.93
2022-08-03T10:19:13.879Z,43.43
2022-08-03T10:20:13.948Z,43.70
2022-08-03T10:21:13.838Z,43.60
2022-08-03T10:22:13.826Z,44.45
2022-08-03T10:23:13.854Z,43.65
2022-08-03T10:24:13.871Z,42.49
2022-08-03T10:25:13.819Z,43.24
2022-08-03T10:26:13.853Z,42.66
2022-08-03T10:27:13.804Z,42.64
2022-08-03T10:28:13.783Z,41.98
2022-08-03T10:29:13.730Z,42.68
2022-08-03T10:30:13.730Z,42.63
2022-08-03T10:31:13.716Z,43.62
2022-08-03T10:32:13.711Z,44.62
2022-08-03T10:33:51.532Z,44.23
2022-08-03T10:34:14.693Z,43.85
2022-08-03T10:35:20.044Z,44.52
2022-08-03T10:36:14.652Z,44.93
2022-08-03T10:37:13.679Z,45.81
2022-08-03T10:38:13.653Z,45.42
2022-08-03T10:39:16.251Z,45.03
2022-08-03T10:40:16.171Z,45.22
2022-08-03T10:41:14.609Z,44.32
2022-08-03T10:42:14.791Z,44.01
2022-08-03T10:43:13.627Z,43.52
2022-08-03T10:44:13.893Z,44.48
2022-08-03T10:45:13.537Z,43.33
2022-08-03T10:46:13.527Z,44.10
2022-08-03T10:47:13.603Z,43.40
2022-08-03T10:48:13.519Z,44.45
2022-08-03T10:49:13.577Z,43.26
2022-08-03T10:50:13.509Z,43.92
2022-08-03T10:51:13.496Z,42.08
2022-08-03T10:52:31.899Z,41.08
2022-08-03T10:53:14.711Z,41.38
2022-08-03T10:54:13.441Z,42.61
2022-08-03T10:55:13.430Z,42.15
2022-08-03T10:56:13.422Z,41.77
2022-08-03T10:57:14.453Z,41.96
2022-08-03T10:58:13.391Z,41.08
2022-08-03T10:59:14.734Z,41.26
2022-08-03T11:00:14.486Z,40.87
2022-08-03T11:01:13.416Z,41.45
2022-08-03T11:02:13.352Z,41.06
2022-08-03T11:03:13.363Z,40.87
2022-08-03T11:04:16.874Z,40.79
2022-08-03T11:05:13.324Z,40.89
2022-08-03T11:06:13.306Z,40.99
2022-08-03T11:07:13.297Z,41.36
2022-08-03T11:08:13.286Z,40.39
2022-08-03T11:09:13.279Z,41.06
2022-08-03T11:10:13.257Z,40.17
2022-08-03T11:11:13.246Z,42.55
2022-08-03T11:12:13.320Z,40.52
2022-08-03T11:13:13.218Z,39.36
2022-08-03T11:14:13.208Z,40.64
2022-08-03T11:15:13.227Z,40.05
2022-08-03T11:16:18.335Z,40.26
2022-08-03T11:17:14.707Z,41.06
2022-08-03T11:18:13.216Z,41.38
2022-08-03T11:19:13.190Z,40.31
2022-08-03T11:20:13.179Z,41.08
2022-08-03T11:21:13.171Z,40.64
2022-08-03T11:22:13.188Z,41.59
2022-08-03T11:23:13.092Z,42.36
2022-08-03T11:24:13.100Z,40.89
2022-08-03T11:25:53.685Z,41.06
2022-08-03T11:26:14.073Z,41.84
2022-08-03T11:27:13.040Z,40.58
2022-08-03T11:28:13.050Z,40.56
2022-08-03T11:29:13.033Z,40.75
2022-08-03T11:30:13.053Z,39.78
2022-08-03T11:31:32.725Z,40.83
2022-08-03T11:32:19.216Z,40.03
2022-08-03T11:33:13.973Z,38.99
2022-08-03T11:34:12.984Z,40.15
2022-08-03T11:35:12.977Z,40.71
2022-08-03T11:36:12.935Z,39.84
2022-08-03T11:37:13.945Z,39.94
2022-08-03T11:38:12.936Z,38.99
2022-08-03T11:39:12.913Z,39.86
2022-08-03T11:40:12.919Z,38.96
2022-08-03T11:41:12.891Z,39.57
2022-08-03T11:42:12.889Z,40.15
2022-08-03T11:43:12.866Z,39.16
2022-08-03T11:44:12.899Z,38.45
2022-08-03T11:45:12.847Z,38.23
2022-08-03T11:46:12.818Z,37.55
2022-08-03T11:47:12.890Z,38.23
2022-08-03T11:48:12.808Z,37.94
2022-08-03T11:49:12.810Z,38.23
2022-08-03T11:50:12.830Z,39.01
2022-08-03T11:51:12.784Z,38.64
2022-08-03T11:52:12.761Z,38.37
2022-08-03T11:53:12.760Z,38.83
2022-08-03T11:54:12.732Z,39.88
2022-08-03T11:55:12.742Z,37.55
2022-08-03T11:56:13.250Z,39.61
2022-08-03T11:57:12.816Z,38.33
2022-08-03T11:59:10.904Z,39.28
2022-08-03T11:59:20.182Z,37.44
2022-08-03T12:00:13.682Z,37.73
2022-08-03T12:01:12.649Z,38.02
2022-08-03T12:02:12.653Z,37.90
2022-08-03T12:03:12.773Z,37.05
2022-08-03T12:04:12.621Z,37.36
2022-08-03T12:05:12.612Z,38.23
2022-08-03T12:06:12.645Z,36.86
2022-08-03T12:07:12.592Z,36.96
2022-08-03T12:08:13.676Z,38.00
2022-08-03T12:09:12.615Z,36.74
2022-08-03T12:10:12.604Z,35.76
2022-08-03T12:11:12.555Z,36.46
2022-08-03T12:12:12.546Z,36.86
2022-08-03T12:14:10.734Z,36.46
2022-08-03T12:14:49.235Z,36.74
2022-08-03T12:15:13.546Z,37.21
2022-08-03T12:16:12.532Z,37.02
2022-08-03T12:17:12.503Z,36.61
2022-08-03T12:18:12.501Z,36.44
2022-08-03T12:19:12.484Z,37.02
2022-08-03T12:20:12.460Z,35.76
2022-08-03T12:21:12.448Z,36.72
2022-08-03T12:22:12.452Z,36.16
2022-08-03T12:23:12.431Z,37.34
2022-08-03T12:24:12.418Z,36.47
2022-08-03T12:25:12.371Z,36.88
2022-08-03T12:26:12.421Z,36.98
2022-08-03T12:27:12.487Z,37.73
2022-08-03T12:28:36.432Z,36.26
2022-08-03T12:29:13.363Z,36.55
2022-08-03T12:30:12.413Z,37.17
2022-08-03T12:31:12.342Z,36.88
2022-08-03T12:32:12.342Z,36.60
2022-08-03T12:33:12.350Z,36.49
2022-08-03T12:34:12.284Z,36.78
2022-08-03T12:35:12.318Z,37.24
2022-08-03T12:36:12.283Z,37.44
2022-08-03T12:37:28.963Z,36.28
2022-08-03T12:38:13.296Z,36.26
2022-08-03T12:39:12.249Z,36.82
2022-08-03T12:40:15.182Z,35.84
2022-08-03T12:41:13.206Z,36.01
2022-08-03T12:42:12.208Z,35.32
2022-08-03T12:43:12.209Z,35.32
2022-08-03T12:44:12.285Z,35.13
2022-08-03T12:45:12.180Z,35.63
2022-08-03T12:46:12.153Z,35.72
2022-08-03T12:47:12.258Z,35.82
2022-08-03T12:48:12.138Z,36.50
2022-08-03T12:49:12.176Z,35.76
2022-08-03T12:50:12.158Z,36.63
2022-08-03T12:51:12.127Z,36.61
2022-08-03T12:52:12.149Z,36.59
2022-08-03T12:53:12.107Z,36.59
2022-08-03T12:54:12.154Z,36.38